sensor_id;sensor_type;location;lat;lon;timestamp;pressure;altitude;pressure_sealevel;temperature;humidity
46638;BME280;32365;46.938;7.390;2022-12-07T07:48:06;95251.50;;;-0.31;98.59
46638;BME280;32365;46.938;7.390;2022-12-07T07:50:32;95253.09;;;-0.30;98.05
46638;BME280;32365;46.938;7.390;2022-12-07T07:52:58;95247.09;;;-0.37;97.10
46638;BME280;32365;46.938;7.390;2022-12-07T07:55:25;95252.16;;;-0.29;97.39
46638;BME280;32365;46.938;7.390;2022-12-07T07:57:51;95241.94;;;-0.21;96.66
46638;BME280;32365;46.938;7.390;2022-12-07T08:00:18;95244.81;;;-0.16;96.96
46638;BME280;32365;46.938;7.390;2022-12-07T08:02:44;95239.78;;;-0.40;97.28
46638;BME280;32365;46.938;7.390;2022-12-07T08:05:12;95244.81;;;-0.24;97.59
46638;BME280;32365;46.938;7.390;2022-12-07T08:07:39;95242.56;;;-0.19;97.12
46638;BME280;32365;46.938;7.390;2022-12-07T08:10:06;95250.38;;;-0.20;97.12
46638;BME280;32365;46.938;7.390;2022-12-07T08:12:35;95249.44;;;-0.19;97.21
46638;BME280;32365;46.938;7.390;2022-12-07T08:15:02;95259.59;;;-0.19;96.77
46638;BME280;32365;46.938;7.390;2022-12-07T08:17:28;95258.63;;;-0.10;97.00
46638;BME280;32365;46.938;7.390;2022-12-07T08:19:54;95251.97;;;-0.27;96.69
46638;BME280;32365;46.938;7.390;2022-12-07T08:22:22;95250.88;;;-0.25;97.55
46638;BME280;32365;46.938;7.390;2022-12-07T08:24:49;95251.38;;;-0.38;98.05
46638;BME280;32365;46.938;7.390;2022-12-07T08:27:15;95252.16;;;-0.29;98.11
46638;BME280;32365;46.938;7.390;2022-12-07T08:29:42;95239.84;;;-0.17;98.01
46638;BME280;32365;46.938;7.390;2022-12-07T08:32:08;95244.63;;;-0.14;97.10
46638;BME280;32365;46.938;7.390;2022-12-07T08:34:34;95251.00;;;-0.10;96.39
46638;BME280;32365;46.938;7.390;2022-12-07T08:37:01;95248.66;;;-0.28;96.47
46638;BME280;32365;46.938;7.390;2022-12-07T08:39:29;95248.31;;;-0.33;96.69
46638;BME280;32365;46.938;7.390;2022-12-07T08:41:56;95250.88;;;-0.25;97.37
46638;BME280;32365;46.938;7.390;2022-12-07T08:44:22;95257.06;;;-0.27;97.24
46638;BME280;32365;46.938;7.390;2022-12-07T08:46:49;95260.41;;;-0.27;97.05
46638;BME280;32365;46.938;7.390;2022-12-07T08:49:18;95256.22;;;-0.11;96.86
46638;BME280;32365;46.938;7.390;2022-12-07T08:51:46;95258.59;;;-0.02;95.59
46638;BME280;32365;46.938;7.390;2022-12-07T08:54:13;95257.50;;;-0.07;95.10
46638;BME280;32365;46.938;7.390;2022-12-07T08:56:42;95258.25;;;0.02;95.07
46638;BME280;32365;46.938;7.390;2022-12-07T08:59:09;95259.19;;;0.09;96.12
46638;BME280;32365;46.938;7.390;2022-12-07T09:01:35;95261.44;;;-0.05;95.15
46638;BME280;32365;46.938;7.390;2022-12-07T09:04:02;95266.19;;;0.07;95.45
46638;BME280;32365;46.938;7.390;2022-12-07T09:06:28;95258.81;;;0.20;95.16
46638;BME280;32365;46.938;7.390;2022-12-07T09:08:55;95253.09;;;0.26;94.99
46638;BME280;32365;46.938;7.390;2022-12-07T09:11:23;95262.47;;;0.26;94.34
46638;BME280;32365;46.938;7.390;2022-12-07T09:13:51;95266.00;;;0.17;94.16
46638;BME280;32365;46.938;7.390;2022-12-07T09:16:17;95266.03;;;0.08;94.46
46638;BME280;32365;46.938;7.390;2022-12-07T09:18:44;95257.91;;;0.13;94.69
46638;BME280;32365;46.938;7.390;2022-12-07T09:21:10;95256.78;;;0.15;94.06
46638;BME280;32365;46.938;7.390;2022-12-07T09:23:36;95260.59;;;0.20;94.56
46638;BME280;32365;46.938;7.390;2022-12-07T09:26:03;95259.75;;;0.27;94.37
46638;BME280;32365;46.938;7.390;2022-12-07T09:28:30;95255.16;;;0.23;94.29
46638;BME280;32365;46.938;7.390;2022-12-07T09:30:58;95268.34;;;0.26;94.21
46638;BME280;32365;46.938;7.390;2022-12-07T09:33:24;95271.50;;;0.37;94.16
46638;BME280;32365;46.938;7.390;2022-12-07T09:35:51;95265.25;;;0.39;94.48
46638;BME280;32365;46.938;7.390;2022-12-07T09:38:18;95267.81;;;0.39;93.05
46638;BME280;32365;46.938;7.390;2022-12-07T09:40:45;95267.94;;;0.46;92.81
46638;BME280;32365;46.938;7.390;2022-12-07T09:43:12;95258.56;;;0.47;92.98
46638;BME280;32365;46.938;7.390;2022-12-07T09:45:39;95255.78;;;0.56;92.70
46638;BME280;32365;46.938;7.390;2022-12-07T09:48:08;95267.75;;;0.56;92.66
46638;BME280;32365;46.938;7.390;2022-12-07T09:50:38;95257.09;;;0.52;92.97
46638;BME280;32365;46.938;7.390;2022-12-07T09:53:06;95256.28;;;0.60;92.37
46638;BME280;32365;46.938;7.390;2022-12-07T09:55:34;95249.34;;;0.69;92.23
46638;BME280;32365;46.938;7.390;2022-12-07T09:58:02;95250.78;;;0.95;92.60
46638;BME280;32365;46.938;7.390;2022-12-07T10:00:29;95248.34;;;0.78;92.33
46638;BME280;32365;46.938;7.390;2022-12-07T10:02:56;95253.03;;;0.66;92.81
46638;BME280;32365;46.938;7.390;2022-12-07T10:05:25;95248.25;;;0.71;91.91
46638;BME280;32365;46.938;7.390;2022-12-07T10:07:53;95247.34;;;0.87;92.28
46638;BME280;32365;46.938;7.390;2022-12-07T10:10:22;95254.53;;;0.84;92.57
46638;BME280;32365;46.938;7.390;2022-12-07T10:12:57;95243.13;;;0.71;92.07
46638;BME280;32365;46.938;7.390;2022-12-07T10:15:24;95241.88;;;0.67;92.70
46638;BME280;32365;46.938;7.390;2022-12-07T10:18:14;95248.50;;;0.76;92.61
46638;BME280;32365;46.938;7.390;2022-12-07T10:20:44;95242.06;;;0.89;92.50
46638;BME280;32365;46.938;7.390;2022-12-07T10:23:13;95238.44;;;0.83;92.53
46638;BME280;32365;46.938;7.390;2022-12-07T10:25:40;95232.47;;;0.68;93.68
46638;BME280;32365;46.938;7.390;2022-12-07T10:28:11;95231.75;;;0.82;94.95
46638;BME280;32365;46.938;7.390;2022-12-07T10:30:52;95227.78;;;0.80;93.11
46638;BME280;32365;46.938;7.390;2022-12-07T10:33:32;95224.78;;;0.76;94.43
46638;BME280;32365;46.938;7.390;2022-12-07T10:36:00;95224.00;;;0.99;94.02
46638;BME280;32365;46.938;7.390;2022-12-07T10:38:27;95230.28;;;1.11;92.17
46638;BME280;32365;46.938;7.390;2022-12-07T10:41:04;95221.91;;;1.17;92.09
46638;BME280;32365;46.938;7.390;2022-12-07T10:43:31;95228.72;;;1.25;90.57
46638;BME280;32365;46.938;7.390;2022-12-07T10:46:17;95218.00;;;1.30;91.58
46638;BME280;32365;46.938;7.390;2022-12-07T10:48:50;95220.63;;;1.21;88.99
46638;BME280;32365;46.938;7.390;2022-12-07T10:51:22;95214.28;;;1.17;89.38
46638;BME280;32365;46.938;7.390;2022-12-07T10:53:54;95212.47;;;1.41;89.15
46638;BME280;32365;46.938;7.390;2022-12-07T10:56:36;95206.94;;;1.37;88.95
46638;BME280;32365;46.938;7.390;2022-12-07T10:59:15;95211.25;;;1.37;88.30
46638;BME280;32365;46.938;7.390;2022-12-07T11:01:45;95201.91;;;1.29;88.74
46638;BME280;32365;46.938;7.390;2022-12-07T11:04:20;95201.59;;;1.09;89.40
46638;BME280;32365;46.938;7.390;2022-12-07T11:06:51;95203.81;;;1.12;88.91
46638;BME280;32365;46.938;7.390;2022-12-07T11:09:33;95192.38;;;1.08;89.30
46638;BME280;32365;46.938;7.390;2022-12-07T11:12:06;95186.34;;;1.39;88.96
46638;BME280;32365;46.938;7.390;2022-12-07T11:14:35;95183.63;;;1.41;88.07
46638;BME280;32365;46.938;7.390;2022-12-07T11:17:07;95187.41;;;1.60;88.09
46638;BME280;32365;46.938;7.390;2022-12-07T11:19:45;95186.00;;;1.57;88.28
46638;BME280;32365;46.938;7.390;2022-12-07T11:22:18;95177.22;;;1.60;87.33
46638;BME280;32365;46.938;7.390;2022-12-07T11:24:47;95184.09;;;1.74;87.95
46638;BME280;32365;46.938;7.390;2022-12-07T11:27:18;95179.25;;;1.49;88.79
46638;BME280;32365;46.938;7.390;2022-12-07T11:29:53;95170.59;;;1.35;88.93
46638;BME280;32365;46.938;7.390;2022-12-07T11:32:22;95172.47;;;1.57;87.25
46638;BME280;32365;46.938;7.390;2022-12-07T11:34:55;95162.59;;;1.53;88.31
46638;BME280;32365;46.938;7.390;2022-12-07T11:37:28;95160.13;;;1.75;88.23
46638;BME280;32365;46.938;7.390;2022-12-07T11:39:58;95156.06;;;1.96;87.90
46638;BME280;32365;46.938;7.390;2022-12-07T11:42:27;95153.25;;;1.91;86.95
46638;BME280;32365;46.938;7.390;2022-12-07T11:44:56;95152.13;;;1.78;87.51
46638;BME280;32365;46.938;7.390;2022-12-07T11:47:28;95157.66;;;1.67;87.92
46638;BME280;32365;46.938;7.390;2022-12-07T11:49:57;95152.31;;;1.77;86.73
46638;BME280;32365;46.938;7.390;2022-12-07T11:52:30;95153.19;;;1.69;87.26
46638;BME280;32365;46.938;7.390;2022-12-07T11:54:58;95155.00;;;2.27;86.90
46638;BME280;32365;46.938;7.390;2022-12-07T11:57:28;95144.06;;;1.96;87.18
46638;BME280;32365;46.938;7.390;2022-12-07T12:00:00;95148.25;;;1.82;86.77
46638;BME280;32365;46.938;7.390;2022-12-07T12:02:28;95137.34;;;1.74;86.73
46638;BME280;32365;46.938;7.390;2022-12-07T12:04:58;95128.44;;;1.84;86.42
46638;BME280;32365;46.938;7.390;2022-12-07T12:07:29;95123.25;;;1.78;86.36
46638;BME280;32365;46.938;7.390;2022-12-07T12:09:58;95123.25;;;1.78;88.20
46638;BME280;32365;46.938;7.390;2022-12-07T12:12:35;95117.78;;;1.81;86.67
46638;BME280;32365;46.938;7.390;2022-12-07T12:15:13;95117.16;;;1.94;86.72
46638;BME280;32365;46.938;7.390;2022-12-07T12:17:56;95112.00;;;2.09;87.07
46638;BME280;32365;46.938;7.390;2022-12-07T12:20:26;95108.59;;;2.02;86.95
46638;BME280;32365;46.938;7.390;2022-12-07T12:22:58;95102.31;;;2.04;87.19
46638;BME280;32365;46.938;7.390;2022-12-07T12:25:27;95108.34;;;1.96;86.39
46638;BME280;32365;46.938;7.390;2022-12-07T12:27:55;95101.47;;;1.97;86.03
46638;BME280;32365;46.938;7.390;2022-12-07T12:30:28;95114.59;;;1.94;87.29
46638;BME280;32365;46.938;7.390;2022-12-07T12:33:00;95101.56;;;2.04;85.90
46638;BME280;32365;46.938;7.390;2022-12-07T12:35:29;95099.63;;;1.91;86.51
46638;BME280;32365;46.938;7.390;2022-12-07T12:38:20;95101.66;;;1.95;88.22
46638;BME280;32365;46.938;7.390;2022-12-07T12:40:46;95104.19;;;2.10;86.26
46638;BME280;32365;46.938;7.390;2022-12-07T12:48:38;95100.47;;;2.35;85.13
46638;BME280;32365;46.938;7.390;2022-12-07T12:54:03;95091.28;;;2.19;87.00
46638;BME280;32365;46.938;7.390;2022-12-07T12:56:35;95092.59;;;2.14;86.38
46638;BME280;32365;46.938;7.390;2022-12-07T12:59:22;95100.59;;;2.48;84.88
46638;BME280;32365;46.938;7.390;2022-12-07T13:01:49;95087.69;;;2.13;85.50
46638;BME280;32365;46.938;7.390;2022-12-07T13:07:13;95085.00;;;1.99;87.12
46638;BME280;32365;46.938;7.390;2022-12-07T13:10:00;95081.13;;;2.04;87.39
46638;BME280;32365;46.938;7.390;2022-12-07T13:12:27;95082.09;;;2.24;87.85
46638;BME280;32365;46.938;7.390;2022-12-07T13:14:55;95084.81;;;2.23;87.51
46638;BME280;32365;46.938;7.390;2022-12-07T13:20:07;95070.94;;;1.89;88.58
46638;BME280;32365;46.938;7.390;2022-12-07T13:22:47;95068.78;;;2.07;87.99
46638;BME280;32365;46.938;7.390;2022-12-07T13:25:20;95065.84;;;1.89;88.92
46638;BME280;32365;46.938;7.390;2022-12-07T13:27:50;95058.66;;;1.77;89.53
46638;BME280;32365;46.938;7.390;2022-12-07T13:30:18;95061.13;;;2.07;87.33
46638;BME280;32365;46.938;7.390;2022-12-07T13:32:50;95057.41;;;2.10;88.81
46638;BME280;32365;46.938;7.390;2022-12-07T13:35:27;95063.25;;;2.25;88.22
46638;BME280;32365;46.938;7.390;2022-12-07T13:37:53;95061.91;;;2.08;88.84
46638;BME280;32365;46.938;7.390;2022-12-07T13:40:22;95059.00;;;2.11;87.94
46638;BME280;32365;46.938;7.390;2022-12-07T13:42:56;95052.84;;;2.27;88.15
46638;BME280;32365;46.938;7.390;2022-12-07T13:45:23;95052.09;;;2.11;88.47
46638;BME280;32365;46.938;7.390;2022-12-07T13:48:13;95047.81;;;2.12;90.08
46638;BME280;32365;46.938;7.390;2022-12-07T13:50:41;95054.66;;;2.11;90.34
46638;BME280;32365;46.938;7.390;2022-12-07T13:53:11;95050.34;;;1.90;90.87
46638;BME280;32365;46.938;7.390;2022-12-07T13:55:39;95048.66;;;1.61;92.13
46638;BME280;32365;46.938;7.390;2022-12-07T13:58:10;95047.22;;;1.73;92.02
46638;BME280;32365;46.938;7.390;2022-12-07T14:00:36;95046.25;;;1.74;92.53
46638;BME280;32365;46.938;7.390;2022-12-07T14:03:04;95052.34;;;1.73;92.13
46638;BME280;32365;46.938;7.390;2022-12-07T14:05:52;95041.31;;;1.73;91.85
46638;BME280;32365;46.938;7.390;2022-12-07T14:08:29;95038.06;;;2.00;91.25
46638;BME280;32365;46.938;7.390;2022-12-07T14:10:57;95039.47;;;2.03;91.28
46638;BME280;32365;46.938;7.390;2022-12-07T14:13:26;95041.81;;;1.83;91.19
46638;BME280;32365;46.938;7.390;2022-12-07T14:15:54;95044.56;;;1.81;92.12
46638;BME280;32365;46.938;7.390;2022-12-07T14:18:25;95038.97;;;1.71;92.60
46638;BME280;32365;46.938;7.390;2022-12-07T14:21:01;95039.88;;;1.85;92.52
46638;BME280;32365;46.938;7.390;2022-12-07T14:23:28;95040.34;;;1.74;92.88
46638;BME280;32365;46.938;7.390;2022-12-07T14:26:03;95039.94;;;1.70;93.26
46638;BME280;32365;46.938;7.390;2022-12-07T14:28:32;95037.22;;;1.57;92.94
46638;BME280;32365;46.938;7.390;2022-12-07T14:31:00;95040.31;;;1.52;93.37
46638;BME280;32365;46.938;7.390;2022-12-07T14:33:26;95041.50;;;1.71;93.70
46638;BME280;32365;46.938;7.390;2022-12-07T14:35:53;95041.16;;;1.74;93.42
46638;BME280;32365;46.938;7.390;2022-12-07T14:38:20;95043.88;;;1.73;92.83
46638;BME280;32365;46.938;7.390;2022-12-07T14:40:47;95046.34;;;1.66;92.93
46638;BME280;32365;46.938;7.390;2022-12-07T14:43:14;95047.75;;;1.68;92.53
46638;BME280;32365;46.938;7.390;2022-12-07T14:45:42;95036.50;;;1.63;93.55
46638;BME280;32365;46.938;7.390;2022-12-07T14:48:09;95036.16;;;1.66;93.59
46638;BME280;32365;46.938;7.390;2022-12-07T14:50:38;95036.16;;;1.66;93.83
46638;BME280;32365;46.938;7.390;2022-12-07T14:53:09;95033.72;;;1.58;94.23
46638;BME280;32365;46.938;7.390;2022-12-07T14:55:37;95038.63;;;1.59;94.50
46638;BME280;32365;46.938;7.390;2022-12-07T14:58:03;95034.94;;;1.47;94.75
46638;BME280;32365;46.938;7.390;2022-12-07T15:00:30;95034.16;;;1.46;95.36
46638;BME280;32365;46.938;7.390;2022-12-07T15:02:57;95033.97;;;1.48;95.85
46638;BME280;32365;46.938;7.390;2022-12-07T15:05:24;95033.81;;;1.49;95.92
46638;BME280;32365;46.938;7.390;2022-12-07T15:07:51;95034.78;;;1.48;95.24
46638;BME280;32365;46.938;7.390;2022-12-07T15:10:19;95040.06;;;1.47;96.08
46638;BME280;32365;46.938;7.390;2022-12-07T15:12:46;95031.00;;;1.44;96.42
46638;BME280;32365;46.938;7.390;2022-12-07T15:15:13;95033.56;;;1.44;96.18
46638;BME280;32365;46.938;7.390;2022-12-07T15:17:39;95025.56;;;1.47;96.30
46638;BME280;32365;46.938;7.390;2022-12-07T15:20:09;95024.75;;;1.47;96.50
46638;BME280;32365;46.938;7.390;2022-12-07T15:22:37;95019.03;;;1.45;96.99
46638;BME280;32365;46.938;7.390;2022-12-07T15:25:03;95017.97;;;1.39;97.35
46638;BME280;32365;46.938;7.390;2022-12-07T15:27:31;95014.72;;;1.45;97.03
46638;BME280;32365;46.938;7.390;2022-12-07T15:29:57;95017.09;;;1.47;97.33
46638;BME280;32365;46.938;7.390;2022-12-07T15:32:24;95013.56;;;1.48;97.10
46638;BME280;32365;46.938;7.390;2022-12-07T15:34:50;95015.31;;;1.62;96.39
46638;BME280;32365;46.938;7.390;2022-12-07T15:37:18;95022.53;;;1.59;95.06
46638;BME280;32365;46.938;7.390;2022-12-07T15:39:44;95010.47;;;1.52;95.51
46638;BME280;32365;46.938;7.390;2022-12-07T15:42:10;95012.41;;;1.65;94.79
46638;BME280;32365;46.938;7.390;2022-12-07T15:44:37;95006.34;;;1.66;93.93
46638;BME280;32365;46.938;7.390;2022-12-07T15:47:21;95005.38;;;1.52;94.91
46638;BME280;32365;46.938;7.390;2022-12-07T15:49:47;95008.19;;;1.58;95.79
46638;BME280;32365;46.938;7.390;2022-12-07T15:52:13;95005.22;;;1.54;96.64
46638;BME280;32365;46.938;7.390;2022-12-07T15:54:42;95002.41;;;1.49;97.08
46638;BME280;32365;46.938;7.390;2022-12-07T15:57:08;95008.03;;;1.44;97.30
46638;BME280;32365;46.938;7.390;2022-12-07T15:59:34;95007.53;;;1.34;97.62
46638;BME280;32365;46.938;7.390;2022-12-07T16:02:01;95009.63;;;1.45;97.55
46638;BME280;32365;46.938;7.390;2022-12-07T16:04:27;95002.53;;;1.41;97.34
46638;BME280;32365;46.938;7.390;2022-12-07T16:06:54;95012.28;;;1.37;97.37
46638;BME280;32365;46.938;7.390;2022-12-07T16:09:21;95015.44;;;1.39;97.87
46638;BME280;32365;46.938;7.390;2022-12-07T16:11:49;95016.06;;;1.41;97.64
46638;BME280;32365;46.938;7.390;2022-12-07T16:14:17;95019.22;;;1.43;97.31
46638;BME280;32365;46.938;7.390;2022-12-07T16:16:43;95011.63;;;1.50;97.00
46638;BME280;32365;46.938;7.390;2022-12-07T16:19:09;95013.94;;;1.45;96.82
46638;BME280;32365;46.938;7.390;2022-12-07T16:21:36;95011.69;;;1.35;96.72
46638;BME280;32365;46.938;7.390;2022-12-07T16:24:03;95007.53;;;1.34;96.89
46638;BME280;32365;46.938;7.390;2022-12-07T16:26:30;95010.31;;;1.39;97.04
46638;BME280;32365;46.938;7.390;2022-12-07T16:28:58;95012.84;;;1.32;96.66
46638;BME280;32365;46.938;7.390;2022-12-07T16:31:24;95010.97;;;1.26;97.54
46638;BME280;32365;46.938;7.390;2022-12-07T16:33:52;95005.69;;;1.28;97.93
46638;BME280;32365;46.938;7.390;2022-12-07T16:36:19;95000.66;;;1.34;98.32
46638;BME280;32365;46.938;7.390;2022-12-07T16:38:47;95001.94;;;1.23;98.74
46638;BME280;32365;46.938;7.390;2022-12-07T16:41:13;95002.78;;;1.31;99.11
46638;BME280;32365;46.938;7.390;2022-12-07T16:43:40;94999.28;;;1.32;99.25
46638;BME280;32365;46.938;7.390;2022-12-07T16:46:08;94994.19;;;1.32;99.25
46638;BME280;32365;46.938;7.390;2022-12-07T16:48:35;94998.03;;;1.28;99.15
46638;BME280;32365;46.938;7.390;2022-12-07T16:51:02;94995.41;;;1.36;99.50
46638;BME280;32365;46.938;7.390;2022-12-07T16:53:28;94995.41;;;1.36;99.65
46638;BME280;32365;46.938;7.390;2022-12-07T16:55:55;94992.25;;;1.34;99.69
46638;BME280;32365;46.938;7.390;2022-12-07T16:58:21;94988.44;;;1.30;100.00
46638;BME280;32365;46.938;7.390;2022-12-07T17:00:48;94996.84;;;1.23;100.00
46638;BME280;32365;46.938;7.390;2022-12-07T17:03:15;94996.66;;;1.10;100.00
46638;BME280;32365;46.938;7.390;2022-12-07T17:05:43;94994.63;;;1.20;100.00
46638;BME280;32365;46.938;7.390;2022-12-07T17:08:10;94995.88;;;1.25;100.00
46638;BME280;32365;46.938;7.390;2022-12-07T17:10:37;94993.06;;;1.19;99.79
46638;BME280;32365;46.938;7.390;2022-12-07T17:13:04;94990.69;;;1.18;100.00
46638;BME280;32365;46.938;7.390;2022-12-07T17:15:56;94988.81;;;1.27;100.00
46638;BME280;32365;46.938;7.390;2022-12-07T17:18:22;94990.69;;;1.18;100.00
46638;BME280;32365;46.938;7.390;2022-12-07T17:20:49;94991.56;;;1.10;100.00
46638;BME280;32365;46.938;7.390;2022-12-07T17:23:15;94984.69;;;1.11;100.00
46638;BME280;32365;46.938;7.390;2022-12-07T17:25:42;94985.50;;;1.11;100.00
46638;BME280;32365;46.938;7.390;2022-12-07T17:28:08;94981.38;;;1.10;100.00
46638;BME280;32365;46.938;7.390;2022-12-07T17:30:34;94981.38;;;1.10;100.00
46638;BME280;32365;46.938;7.390;2022-12-07T17:33:01;94980.47;;;1.03;100.00
46638;BME280;32365;46.938;7.390;2022-12-07T17:35:28;94979.91;;;1.01;100.00
46638;BME280;32365;46.938;7.390;2022-12-07T17:37:55;94978.03;;;0.95;100.00
46638;BME280;32365;46.938;7.390;2022-12-07T17:40:21;94974.00;;;1.00;100.00
46638;BME280;32365;46.938;7.390;2022-12-07T17:42:47;94976.47;;;0.94;100.00
46638;BME280;32365;46.938;7.390;2022-12-07T17:45:15;94974.00;;;1.00;100.00
46638;BME280;32365;46.938;7.390;2022-12-07T17:47:42;94973.38;;;0.98;100.00
46638;BME280;32365;46.938;7.390;2022-12-07T17:50:11;94975.75;;;1.00;100.00
46638;BME280;32365;46.938;7.390;2022-12-07T17:52:39;94981.56;;;0.94;100.00
46638;BME280;32365;46.938;7.390;2022-12-07T17:55:23;94974.34;;;0.97;100.00
46638;BME280;32365;46.938;7.390;2022-12-07T17:57:50;94974.00;;;1.00;100.00
46638;BME280;32365;46.938;7.390;2022-12-07T18:00:17;94971.19;;;0.95;100.00
46638;BME280;32365;46.938;7.390;2022-12-07T18:02:44;94968.38;;;0.90;100.00
46638;BME280;32365;46.938;7.390;2022-12-07T18:05:10;94963.63;;;0.87;100.00
46638;BME280;32365;46.938;7.390;2022-12-07T18:07:36;94964.88;;;0.91;100.00
46638;BME280;32365;46.938;7.390;2022-12-07T18:10:05;94959.13;;;1.04;100.00
46638;BME280;32365;46.938;7.390;2022-12-07T18:12:33;94956.88;;;0.94;100.00
46638;BME280;32365;46.938;7.390;2022-12-07T18:14:59;94956.69;;;0.96;100.00
46638;BME280;32365;46.938;7.390;2022-12-07T18:17:25;94952.09;;;1.06;100.00
46638;BME280;32365;46.938;7.390;2022-12-07T18:19:52;94952.56;;;0.95;100.00
46638;BME280;32365;46.938;7.390;2022-12-07T18:22:18;94955.72;;;0.97;100.00
46638;BME280;32365;46.938;7.390;2022-12-07T18:24:44;94955.81;;;0.88;100.00
46638;BME280;32365;46.938;7.390;2022-12-07T18:27:12;94948.00;;;0.90;100.00
46638;BME280;32365;46.938;7.390;2022-12-07T18:29:39;94953.88;;;0.90;100.00
46638;BME280;32365;46.938;7.390;2022-12-07T18:32:05;94954.41;;;0.86;100.00
46638;BME280;32365;46.938;7.390;2022-12-07T18:34:32;94953.34;;;0.95;100.00
46638;BME280;32365;46.938;7.390;2022-12-07T18:36:58;94957.84;;;0.93;100.00
46638;BME280;32365;46.938;7.390;2022-12-07T18:39:24;94949.50;;;0.84;100.00
46638;BME280;32365;46.938;7.390;2022-12-07T18:41:51;94952.03;;;0.84;100.00
46638;BME280;32365;46.938;7.390;2022-12-07T18:44:18;94949.69;;;0.83;100.00
46638;BME280;32365;46.938;7.390;2022-12-07T18:46:45;94955.81;;;0.88;100.00
46638;BME280;32365;46.938;7.390;2022-12-07T18:49:12;94946.94;;;0.84;100.00
46638;BME280;32365;46.938;7.390;2022-12-07T18:51:39;94948.41;;;0.94;100.00
46638;BME280;32365;46.938;7.390;2022-12-07T18:54:05;94946.69;;;0.94;100.00
46638;BME280;32365;46.938;7.390;2022-12-07T18:56:32;94949.06;;;0.81;100.00
46638;BME280;32365;46.938;7.390;2022-12-07T18:58:59;94950.53;;;0.90;100.00
46638;BME280;32365;46.938;7.390;2022-12-07T19:01:46;94944.81;;;0.88;100.00
46638;BME280;32365;46.938;7.390;2022-12-07T19:04:13;94939.56;;;0.89;100.00
46638;BME280;32365;46.938;7.390;2022-12-07T19:06:39;94942.13;;;0.89;100.00
46638;BME280;32365;46.938;7.390;2022-12-07T19:09:06;94938.94;;;0.87;100.00
46638;BME280;32365;46.938;7.390;2022-12-07T19:11:32;94938.56;;;0.90;100.00
46638;BME280;32365;46.938;7.390;2022-12-07T19:14:15;94940.97;;;0.92;100.00
46638;BME280;32365;46.938;7.390;2022-12-07T19:16:42;94934.09;;;0.92;100.00
46638;BME280;32365;46.938;7.390;2022-12-07T19:19:09;94932.25;;;1.01;100.00
46638;BME280;32365;46.938;7.390;2022-12-07T19:21:36;94935.13;;;0.98;100.00
46638;BME280;32365;46.938;7.390;2022-12-07T19:24:02;94926.63;;;0.91;100.00
46638;BME280;32365;46.938;7.390;2022-12-07T19:26:29;94925.41;;;1.02;100.00
46638;BME280;32365;46.938;7.390;2022-12-07T19:28:55;94929.25;;;0.98;100.00
46638;BME280;32365;46.938;7.390;2022-12-07T19:31:22;94919.50;;;1.01;100.00
46638;BME280;32365;46.938;7.390;2022-12-07T19:33:48;94920.34;;;1.08;100.00
46638;BME280;32365;46.938;7.390;2022-12-07T19:36:16;94916.06;;;1.09;100.00
46638;BME280;32365;46.938;7.390;2022-12-07T19:38:42;94922.47;;;1.05;100.00
46638;BME280;32365;46.938;7.390;2022-12-07T19:41:09;94921.34;;;0.92;100.00
46638;BME280;32365;46.938;7.390;2022-12-07T19:43:56;94917.06;;;0.93;100.00
46638;BME280;32365;46.938;7.390;2022-12-07T19:46:23;94920.16;;;0.88;100.00
46638;BME280;32365;46.938;7.390;2022-12-07T19:48:49;94917.06;;;0.93;100.00
46638;BME280;32365;46.938;7.390;2022-12-07T19:51:17;94914.00;;;0.83;100.00
46638;BME280;32365;46.938;7.390;2022-12-07T19:53:43;94904.41;;;0.85;100.00
46638;BME280;32365;46.938;7.390;2022-12-07T19:56:12;94908.97;;;0.89;100.00
46638;BME280;32365;46.938;7.390;2022-12-07T19:58:39;94904.78;;;0.82;100.00
46638;BME280;32365;46.938;7.390;2022-12-07T20:01:05;94906.59;;;0.88;100.00
46638;BME280;32365;46.938;7.390;2022-12-07T20:03:31;94905.00;;;0.87;100.00
46638;BME280;32365;46.938;7.390;2022-12-07T20:05:58;94905.72;;;0.81;100.00
46638;BME280;32365;46.938;7.390;2022-12-07T20:08:25;94905.00;;;0.87;100.00
46638;BME280;32365;46.938;7.390;2022-12-07T20:10:52;94898.53;;;0.84;100.00
46638;BME280;32365;46.938;7.390;2022-12-07T20:13:18;94904.59;;;0.83;100.00
46638;BME280;32365;46.938;7.390;2022-12-07T20:15:53;94891.75;;;0.76;100.00
46638;BME280;32365;46.938;7.390;2022-12-07T20:18:19;94892.91;;;0.74;100.00
46638;BME280;32365;46.938;7.390;2022-12-07T20:20:51;94888.16;;;0.71;100.00
46638;BME280;32365;46.938;7.390;2022-12-07T20:23:17;94883.41;;;0.68;100.00
46638;BME280;32365;46.938;7.390;2022-12-07T20:25:45;94885.72;;;0.63;100.00
46638;BME280;32365;46.938;7.390;2022-12-07T20:28:11;94884.34;;;0.60;100.00
46638;BME280;32365;46.938;7.390;2022-12-07T20:30:43;94881.41;;;0.63;100.00
46638;BME280;32365;46.938;7.390;2022-12-07T20:33:10;94874.03;;;0.68;100.00
46638;BME280;32365;46.938;7.390;2022-12-07T20:35:37;94867.97;;;0.69;100.00
46638;BME280;32365;46.938;7.390;2022-12-07T20:38:03;94878.59;;;0.73;100.00
46638;BME280;32365;46.938;7.390;2022-12-07T20:40:29;94864.63;;;0.69;100.00
46638;BME280;32365;46.938;7.390;2022-12-07T20:42:57;94878.31;;;0.68;100.00
46638;BME280;32365;46.938;7.390;2022-12-07T20:45:22;94872.69;;;0.72;100.00
46638;BME280;32365;46.938;7.390;2022-12-07T20:47:49;94868.41;;;0.73;100.00
46638;BME280;32365;46.938;7.390;2022-12-07T20:50:15;94868.31;;;0.66;100.00
46638;BME280;32365;46.938;7.390;2022-12-07T20:52:41;94868.06;;;0.61;100.00
46638;BME280;32365;46.938;7.390;2022-12-07T20:55:08;94872.03;;;0.64;100.00
46638;BME280;32365;46.938;7.390;2022-12-07T20:57:34;94869.63;;;0.62;100.00
46638;BME280;32365;46.938;7.390;2022-12-07T21:00:03;94870.34;;;0.56;100.00
46638;BME280;32365;46.938;7.390;2022-12-07T21:02:30;94869.03;;;0.60;100.00
46638;BME280;32365;46.938;7.390;2022-12-07T21:04:57;94865.59;;;0.68;100.00
46638;BME280;32365;46.938;7.390;2022-12-07T21:07:23;94862.19;;;0.60;100.00
46638;BME280;32365;46.938;7.390;2022-12-07T21:09:50;94858.59;;;0.55;100.00
46638;BME280;32365;46.938;7.390;2022-12-07T21:12:16;94854.72;;;0.59;100.00
46638;BME280;32365;46.938;7.390;2022-12-07T21:14:43;94852.97;;;0.59;100.00
46638;BME280;32365;46.938;7.390;2022-12-07T21:17:11;94859.75;;;0.52;100.00